aviador You're here:

ORER Decoded Metar

in
Report Time2018-06-18 15:00:00
UTC Time2018-06-18 15:25:12
Flight Rules vfr VFR
Wind230° at 10 kt
W.Decomp.*RWY 18: 6.4 kt HW 7.7 kt RCW
RWY 15: 1.7 kt HW 9.8 kt RCW
W.Rank230° ranks 18
Current wind is above 230° avg. (6.9)
Visibility8000 m
Phenomena:N/A
Clouds:N/A
Expected CloudBase > 12,400 ft AGL from Temp-Dew spread
CeilingNone
Temp35°C
Dew Point04°C (14% RH)
Heat Index32.5°C
AAT30.0°C
QNH1005 hPa
Raw Report
ORER 181500Z 23010KT 8000 NSC 35/04 Q1005 NOSIG=

Extra information for ORER:More info

Social comments